Time;durP1;ratioP1;P1;durP2;ratioP2;P2;SDS_P1;SDS_P2;PMS_P1;PMS_P2;Temp;Humidity;BMP_temperature;BMP_pressure;BME280_temperature;BME280_humidity;BME280_pressure;Samples;Min_cycle;Max_cycle;Signal;HPM_P1;HPM_P2
2021/01/27 00:01:12;;;;;;;7.70;7.00;;;0.80;99.90;;;;;;5054210;28;20664;-87
2021/01/27 00:03:44;;;;;;;7.80;6.97;;;0.90;99.90;;;;;;5068647;28;20743;-87
2021/01/27 00:06:10;;;;;;;9.63;7.20;;;1.10;99.90;;;;;;5066198;28;20624;-87
2021/01/27 00:08:37;;;;;;;10.60;7.90;;;1.00;99.90;;;;;;5065847;28;20623;-88
2021/01/27 00:11:03;;;;;;;11.93;8.97;;;0.80;99.90;;;;;;5063159;28;21121;-88
2021/01/27 00:13:29;;;;;;;10.00;7.73;;;0.80;99.90;;;;;;5067299;28;20641;-88
2021/01/27 00:15:56;;;;;;;10.93;8.33;;;0.80;99.90;;;;;;5060365;28;20624;-88
2021/01/27 00:18:23;;;;;;;10.60;9.20;;;0.70;99.90;;;;;;5057680;28;20663;-86
2021/01/27 00:20:49;;;;;;;10.07;9.13;;;0.50;99.90;;;;;;5054859;28;20659;-86
2021/01/27 00:23:16;;;;;;;10.70;8.03;;;0.60;99.90;;;;;;5064443;28;20622;-86
2021/01/27 00:25:42;;;;;;;7.87;7.17;;;0.60;99.90;;;;;;5066137;28;20706;-85
2021/01/27 00:28:09;;;;;;;9.57;8.50;;;0.60;99.90;;;;;;5060064;28;20617;-84
2021/01/27 00:30:38;;;;;;;8.83;7.93;;;0.70;99.90;;;;;;5058100;28;21122;-84
2021/01/27 00:33:07;;;;;;;8.20;7.40;;;0.70;99.90;;;;;;5063646;28;20616;-85
2021/01/27 00:35:36;;;;;;;9.40;8.50;;;0.80;99.90;;;;;;5048912;28;20693;-88
2021/01/27 00:38:09;;;;;;;8.77;7.97;;;0.70;99.90;;;;;;5061408;28;20714;-87
2021/01/27 00:40:35;;;;;;;9.10;7.83;;;0.90;99.90;;;;;;5066039;28;20661;-86
2021/01/27 00:43:02;;;;;;;8.13;7.37;;;0.90;99.90;;;;;;5066263;28;20645;-86
2021/01/27 00:45:28;;;;;;;9.03;8.13;;;0.90;99.90;;;;;;5064448;28;20632;-87
2021/01/27 00:47:54;;;;;;;9.20;7.90;;;1.00;99.90;;;;;;5068317;28;20690;-87
2021/01/27 00:50:22;;;;;;;8.33;7.53;;;0.90;99.90;;;;;;5070037;28;20652;-86
2021/01/27 00:52:49;;;;;;;8.03;7.33;;;0.90;99.90;;;;;;5065377;28;20634;-87
2021/01/27 00:55:18;;;;;;;8.10;7.30;;;0.90;99.90;;;;;;5071787;28;20650;-88
2021/01/27 00:57:45;;;;;;;11.13;9.00;;;0.90;99.90;;;;;;5086320;28;20761;-88
2021/01/27 01:00:18;;;;;;;8.10;7.40;;;0.80;99.90;;;;;;5085371;28;20708;-88
2021/01/27 01:02:44;;;;;;;8.27;7.20;;;0.60;99.90;;;;;;5083849;28;20692;-88
2021/01/27 01:05:14;;;;;;;7.57;6.87;;;0.60;99.90;;;;;;5084587;28;20645;-88
2021/01/27 01:07:46;;;;;;;8.53;7.43;;;0.60;99.90;;;;;;5054059;28;20625;-89
2021/01/27 01:10:18;;;;;;;9.20;7.60;;;0.50;99.90;;;;;;5065631;28;20660;-89
2021/01/27 01:12:45;;;;;;;8.57;7.87;;;0.60;99.90;;;;;;5060456;28;20605;-89
2021/01/27 01:15:12;;;;;;;8.73;7.93;;;0.50;99.90;;;;;;5062612;28;20578;-89
2021/01/27 01:17:39;;;;;;;11.80;7.87;;;0.60;99.90;;;;;;5064517;28;20669;-88
2021/01/27 01:20:10;;;;;;;10.07;9.17;;;0.80;99.90;;;;;;5063804;28;20711;-88
2021/01/27 01:22:37;;;;;;;8.53;7.70;;;0.70;99.90;;;;;;5061411;28;20629;-88
2021/01/27 01:25:05;;;;;;;8.97;8.17;;;0.70;99.90;;;;;;5048494;28;20632;-89
2021/01/27 01:27:31;;;;;;;9.07;8.03;;;0.70;99.90;;;;;;5063163;28;20625;-88
2021/01/27 01:29:58;;;;;;;10.07;9.10;;;0.70;99.90;;;;;;5064684;28;20645;-86
2021/01/27 01:32:24;;;;;;;9.97;9.00;;;0.80;99.90;;;;;;5065261;28;20639;-87
2021/01/27 01:34:51;;;;;;;8.47;7.40;;;0.80;99.90;;;;;;5066754;28;20651;-87
2021/01/27 01:37:17;;;;;;;8.07;7.30;;;0.90;99.90;;;;;;5065409;28;21000;-87
2021/01/27 01:39:44;;;;;;;9.53;8.00;;;0.90;99.90;;;;;;5068959;28;20664;-87
2021/01/27 01:42:11;;;;;;;7.63;7.03;;;0.70;99.90;;;;;;5067546;28;20686;-87
2021/01/27 01:44:37;;;;;;;9.67;8.67;;;0.80;99.90;;;;;;5071813;28;20632;-87
2021/01/27 01:47:04;;;;;;;10.20;9.20;;;0.90;99.90;;;;;;5067866;28;20721;-87
2021/01/27 01:49:30;;;;;;;8.97;8.03;;;1.00;99.90;;;;;;5061309;28;20648;-87
2021/01/27 01:52:01;;;;;;;11.00;7.73;;;1.00;99.90;;;;;;5066041;28;20636;-88
2021/01/27 01:54:37;;;;;;;10.03;9.03;;;1.00;99.90;;;;;;5063211;28;20609;-88
2021/01/27 01:57:09;;;;;;;7.87;7.27;;;0.90;99.90;;;;;;5066312;28;20739;-88
2021/01/27 01:59:38;;;;;;;9.43;8.53;;;0.80;99.90;;;;;;5071201;28;20706;-87
2021/01/27 02:02:08;;;;;;;9.67;8.07;;;0.80;99.90;;;;;;5067868;28;20658;-88
2021/01/27 02:04:39;;;;;;;8.63;7.83;;;0.80;99.90;;;;;;5059127;28;21221;-88
2021/01/27 02:07:05;;;;;;;9.00;8.20;;;0.70;99.90;;;;;;5066160;28;20635;-88
2021/01/27 02:09:31;;;;;;;7.73;6.73;;;0.70;99.90;;;;;;5065476;28;21184;-87
2021/01/27 02:12:17;;;;;;;8.03;7.13;;;0.60;99.90;;;;;;5062044;28;20633;-89
2021/01/27 02:15:08;;;;;;;8.00;7.20;;;0.60;99.90;;;;;;5060822;28;20638;-88
2021/01/27 02:17:40;;;;;;;8.73;7.70;;;0.60;99.90;;;;;;5066115;28;20684;-87
2021/01/27 02:21:07;;;;;;;8.63;7.03;;;0.70;99.90;;;;;;5062719;28;20860;-85
2021/01/27 02:24:07;;;;;;;8.73;7.83;;;0.60;99.90;;;;;;5065348;28;20611;-88
2021/01/27 02:27:07;;;;;;;9.23;6.83;;;0.70;99.90;;;;;;5063476;28;20620;-88
2021/01/27 02:30:06;;;;;;;7.10;6.50;;;0.70;99.90;;;;;;5066429;28;20656;-87
2021/01/27 02:33:06;;;;;;;7.63;6.80;;;0.70;99.90;;;;;;5066145;28;20631;-87
2021/01/27 02:35:36;;;;;;;8.63;6.07;;;0.60;99.90;;;;;;5025274;28;20638;-88
2021/01/27 02:38:10;;;;;;;7.93;7.13;;;0.60;99.90;;;;;;5062657;28;20664;-87
2021/01/27 02:40:44;;;;;;;7.00;6.30;;;0.70;99.90;;;;;;5064157;28;20690;-87
2021/01/27 02:43:16;;;;;;;7.87;7.10;;;0.60;99.90;;;;;;5065744;28;20638;-87
2021/01/27 02:45:46;;;;;;;7.10;6.50;;;0.70;99.90;;;;;;5065712;28;21007;-87
2021/01/27 02:48:17;;;;;;;8.10;7.40;;;0.70;99.90;;;;;;5068001;28;21147;-87
2021/01/27 02:50:51;;;;;;;7.30;6.57;;;0.60;99.90;;;;;;5066995;28;20652;-87
2021/01/27 02:53:19;;;;;;;6.80;6.20;;;0.60;99.90;;;;;;5065312;28;20943;-87
2021/01/27 02:55:52;;;;;;;7.27;6.50;;;0.50;99.90;;;;;;5065545;28;20633;-87
2021/01/27 02:58:24;;;;;;;7.60;6.57;;;0.50;99.90;;;;;;5065028;28;21250;-87
2021/01/27 03:00:56;;;;;;;7.10;6.40;;;0.50;99.90;;;;;;5059540;28;20640;-86
2021/01/27 03:03:27;;;;;;;7.73;6.43;;;0.80;99.90;;;;;;5044192;28;21029;-87
2021/01/27 03:05:58;;;;;;;5.90;5.43;;;0.70;99.90;;;;;;5065020;28;20637;-87
2021/01/27 03:08:27;;;;;;;7.03;6.43;;;0.60;99.90;;;;;;5066610;28;20625;-86
2021/01/27 03:11:02;;;;;;;7.13;6.57;;;0.60;99.90;;;;;;5064554;28;20667;-87
2021/01/27 03:13:29;;;;;;;6.83;6.23;;;0.50;99.90;;;;;;5070831;28;20643;-86
2021/01/27 03:16:01;;;;;;;6.60;5.63;;;0.50;99.90;;;;;;5071973;28;20654;-86
2021/01/27 03:18:31;;;;;;;6.60;6.00;;;0.50;99.90;;;;;;5074689;28;20667;-88
2021/01/27 03:21:04;;;;;;;6.90;6.40;;;0.50;99.90;;;;;;5067778;28;20675;-88
2021/01/27 03:23:37;;;;;;;7.13;6.43;;;0.60;99.90;;;;;;5053331;28;20644;-88
2021/01/27 03:26:12;;;;;;;7.20;6.40;;;0.70;99.90;;;;;;5074724;28;21173;-88
2021/01/27 03:28:43;;;;;;;7.23;6.53;;;0.70;99.90;;;;;;5079591;28;20613;-88
2021/01/27 03:31:10;;;;;;;6.70;6.10;;;0.60;99.90;;;;;;5076038;28;20660;-88
2021/01/27 03:33:42;;;;;;;7.93;7.27;;;0.60;99.90;;;;;;5075426;28;20667;-88
2021/01/27 03:36:13;;;;;;;7.10;6.40;;;0.60;99.90;;;;;;5073706;28;20625;-88
2021/01/27 03:38:44;;;;;;;7.20;6.60;;;0.50;99.90;;;;;;5079224;28;20665;-87
2021/01/27 03:41:15;;;;;;;7.40;6.53;;;0.40;99.90;;;;;;5075102;28;20657;-88
2021/01/27 03:43:48;;;;;;;7.07;6.13;;;0.50;99.90;;;;;;5069966;28;20823;-87
2021/01/27 03:46:21;;;;;;;7.00;6.40;;;0.40;99.90;;;;;;5074052;28;20632;-87
2021/01/27 03:48:54;;;;;;;6.30;5.70;;;0.40;99.90;;;;;;5077153;28;20624;-87
2021/01/27 03:51:28;;;;;;;7.77;7.07;;;0.40;99.90;;;;;;5067577;28;20642;-87
2021/01/27 03:53:56;;;;;;;7.20;6.50;;;0.70;99.90;;;;;;5067798;28;20625;-85
2021/01/27 03:56:31;;;;;;;7.40;6.80;;;0.50;99.90;;;;;;5065084;28;20655;-85
2021/01/27 03:58:59;;;;;;;6.80;6.27;;;0.50;99.90;;;;;;5067503;28;21261;-85
2021/01/27 04:01:25;;;;;;;7.67;7.00;;;0.60;99.90;;;;;;5066412;28;20641;-85
2021/01/27 04:03:54;;;;;;;7.77;6.70;;;0.60;99.90;;;;;;5065499;28;20957;-85
2021/01/27 04:06:20;;;;;;;6.00;5.50;;;0.50;99.90;;;;;;5060823;28;21008;-85
2021/01/27 04:08:48;;;;;;;7.13;6.53;;;0.50;99.90;;;;;;5062501;28;20621;-87
2021/01/27 04:11:14;;;;;;;8.50;6.77;;;0.50;99.90;;;;;;5064365;28;20653;-87
2021/01/27 04:13:40;;;;;;;9.10;6.60;;;0.40;99.90;;;;;;5063880;28;21512;-87
2021/01/27 04:16:07;;;;;;;6.80;6.27;;;0.50;99.90;;;;;;5063757;28;21243;-88
2021/01/27 04:18:34;;;;;;;8.27;6.43;;;0.40;99.90;;;;;;5060227;28;20663;-89
2021/01/27 04:21:01;;;;;;;6.47;6.00;;;0.50;99.90;;;;;;5060309;28;20649;-88
2021/01/27 04:23:27;;;;;;;5.77;5.27;;;0.60;99.90;;;;;;5062320;28;20648;-88
2021/01/27 04:25:54;;;;;;;6.27;5.67;;;0.50;99.90;;;;;;5061597;28;20624;-89
2021/01/27 04:28:21;;;;;;;6.83;6.13;;;0.40;99.90;;;;;;5056695;28;20613;-89
2021/01/27 04:30:47;;;;;;;5.87;5.37;;;0.40;99.90;;;;;;5062620;28;20681;-88
2021/01/27 04:33:13;;;;;;;9.50;6.20;;;0.50;99.90;;;;;;5063363;28;20637;-89
2021/01/27 04:35:42;;;;;;;6.27;5.77;;;0.50;99.90;;;;;;5065877;28;20636;-88
2021/01/27 04:38:08;;;;;;;6.63;6.03;;;0.50;99.90;;;;;;5064169;28;20621;-88
2021/01/27 04:40:38;;;;;;;6.83;6.13;;;0.60;99.90;;;;;;5067244;28;20663;-88
2021/01/27 04:43:17;;;;;;;7.70;7.00;;;0.60;99.90;;;;;;5062639;28;20641;-90
2021/01/27 04:45:47;;;;;;;7.83;7.00;;;0.50;99.90;;;;;;5053009;28;20628;-87
2021/01/27 04:48:22;;;;;;;7.47;6.77;;;0.60;99.90;;;;;;5064689;28;20636;-87
2021/01/27 04:50:58;;;;;;;8.87;7.73;;;0.60;99.90;;;;;;5065957;28;21299;-87
2021/01/27 04:53:40;;;;;;;10.57;7.77;;;0.70;99.90;;;;;;5064609;28;20640;-88
2021/01/27 04:56:39;;;;;;;8.30;7.50;;;0.80;99.90;;;;;;5059582;28;20644;-87
2021/01/27 04:59:13;;;;;;;8.83;7.97;;;0.90;99.90;;;;;;5058360;28;21215;-87
2021/01/27 05:02:18;;;;;;;9.00;7.37;;;0.80;99.90;;;;;;5060268;28;20670;-87
2021/01/27 05:04:55;;;;;;;8.20;7.50;;;0.80;99.90;;;;;;5024961;28;21085;-87
2021/01/27 05:07:29;;;;;;;9.43;8.53;;;0.80;99.90;;;;;;5061487;28;20670;-87
2021/01/27 05:10:00;;;;;;;9.23;8.20;;;0.80;99.90;;;;;;5065563;28;21219;-86
2021/01/27 05:12:33;;;;;;;11.20;7.03;;;0.80;99.90;;;;;;5067032;28;20628;-86
2021/01/27 05:15:00;;;;;;;8.80;8.00;;;0.90;99.90;;;;;;5072612;28;20643;-85
2021/01/27 05:17:27;;;;;;;7.90;7.30;;;0.80;99.90;;;;;;5071407;28;20648;-87
2021/01/27 05:19:53;;;;;;;8.77;7.93;;;0.90;99.90;;;;;;5072158;28;20668;-89
2021/01/27 05:22:19;;;;;;;8.27;7.50;;;0.80;99.90;;;;;;5074066;28;20621;-86
2021/01/27 05:24:46;;;;;;;8.23;7.53;;;0.80;99.90;;;;;;5068633;28;20621;-87
2021/01/27 05:27:18;;;;;;;8.50;7.70;;;0.80;99.90;;;;;;5065597;28;20637;-86
2021/01/27 05:29:49;;;;;;;8.00;7.40;;;0.80;99.90;;;;;;5065782;28;21189;-85
2021/01/27 05:32:18;;;;;;;8.93;8.13;;;0.80;99.90;;;;;;5064430;28;20641;-87
2021/01/27 05:34:46;;;;;;;10.37;8.43;;;0.80;99.90;;;;;;5072498;28;20687;-87
2021/01/27 05:37:16;;;;;;;9.63;8.73;;;0.80;99.90;;;;;;5071733;28;20625;-86
2021/01/27 05:39:44;;;;;;;11.40;9.57;;;0.80;99.90;;;;;;5079512;28;20664;-86
2021/01/27 05:42:22;;;;;;;10.23;8.80;;;0.70;99.90;;;;;;5070537;28;20651;-86
2021/01/27 05:44:51;;;;;;;11.00;9.90;;;0.80;99.90;;;;;;5069648;28;21187;-86
2021/01/27 05:47:35;;;;;;;10.17;9.17;;;0.90;99.90;;;;;;5067736;28;20677;-86
2021/01/27 05:50:30;;;;;;;10.90;9.83;;;1.00;99.90;;;;;;5061654;28;20649;-87
2021/01/27 05:53:10;;;;;;;11.40;9.50;;;0.80;99.90;;;;;;5060778;28;21175;-86
2021/01/27 05:55:54;;;;;;;11.93;10.73;;;0.80;99.90;;;;;;5063842;28;21017;-85
2021/01/27 05:58:20;;;;;;;10.87;9.87;;;0.80;99.90;;;;;;5071122;28;21263;-86
2021/01/27 06:00:48;;;;;;;11.63;10.50;;;0.80;99.90;;;;;;5070685;28;20660;-86
2021/01/27 06:03:22;;;;;;;11.20;9.27;;;0.80;99.90;;;;;;5067868;28;20640;-88
2021/01/27 06:05:48;;;;;;;10.10;9.20;;;0.80;99.90;;;;;;5071576;28;20664;-88
2021/01/27 06:08:22;;;;;;;10.00;9.03;;;0.80;99.90;;;;;;5068328;28;20656;-89
2021/01/27 06:10:50;;;;;;;9.37;8.40;;;0.80;99.90;;;;;;5067713;28;21039;-88
2021/01/27 06:13:24;;;;;;;11.17;8.80;;;0.90;99.90;;;;;;5066118;28;20633;-88
2021/01/27 06:15:51;;;;;;;8.40;7.67;;;0.90;99.90;;;;;;5063454;28;20628;-87
2021/01/27 06:18:26;;;;;;;10.43;8.60;;;0.80;99.90;;;;;;5065880;28;20672;-88
2021/01/27 06:21:11;;;;;;;11.13;9.17;;;0.90;99.90;;;;;;5066800;28;20710;-88
2021/01/27 06:24:01;;;;;;;8.80;8.00;;;0.90;99.90;;;;;;5069421;28;21275;-86
2021/01/27 06:27:05;;;;;;;10.00;8.93;;;0.90;99.90;;;;;;5067715;28;20625;-86
2021/01/27 06:29:52;;;;;;;10.00;9.00;;;0.90;99.90;;;;;;5071151;28;20680;-87
2021/01/27 06:32:37;;;;;;;10.07;8.60;;;0.90;99.90;;;;;;5065336;28;21763;-86
2021/01/27 06:35:16;;;;;;;9.70;8.60;;;0.80;99.90;;;;;;5063038;28;20644;-87
2021/01/27 06:37:51;;;;;;;9.87;8.87;;;0.80;99.90;;;;;;5053912;28;20664;-85
2021/01/27 06:40:29;;;;;;;9.00;8.20;;;0.80;99.90;;;;;;5072741;28;20663;-85
2021/01/27 06:43:29;;;;;;;11.43;9.80;;;0.90;99.90;;;;;;5073933;28;20639;-84
2021/01/27 06:46:12;;;;;;;10.33;9.53;;;0.90;99.90;;;;;;5064972;28;20652;-85
2021/01/27 06:49:09;;;;;;;9.67;8.67;;;0.90;99.90;;;;;;5069710;28;20628;-85
2021/01/27 06:52:21;;;;;;;11.57;10.37;;;0.90;99.90;;;;;;5065798;28;20674;-85
2021/01/27 06:55:01;;;;;;;11.10;10.17;;;1.00;99.90;;;;;;5004336;28;20644;-85
2021/01/27 06:57:41;;;;;;;10.00;9.10;;;0.90;99.90;;;;;;5069790;28;20652;-86
2021/01/27 07:00:23;;;;;;;11.33;10.13;;;0.90;99.90;;;;;;5067087;28;20621;-87
2021/01/27 07:03:23;;;;;;;6.60;6.00;;;0.90;99.90;;;;;;5065625;28;20639;-86
2021/01/27 07:06:25;;;;;;;5.90;5.40;;;0.90;99.90;;;;;;5052044;28;20990;-87
2021/01/27 07:09:27;;;;;;;9.10;8.30;;;1.20;99.90;;;;;;5063402;28;21015;-85
2021/01/27 07:12:09;;;;;;;9.40;8.60;;;1.30;99.90;;;;;;5035308;28;20629;-85
2021/01/27 07:14:52;;;;;;;10.73;9.80;;;1.10;99.90;;;;;;5065702;28;20959;-85
2021/01/27 07:18:01;;;;;;;15.80;10.03;;;1.10;99.90;;;;;;5067757;28;20646;-84
2021/01/27 07:20:29;;;;;;;9.30;8.50;;;1.10;99.90;;;;;;5068609;28;20586;-85
2021/01/27 07:23:02;;;;;;;9.23;8.43;;;1.30;99.90;;;;;;5065944;28;20627;-87
2021/01/27 07:25:44;;;;;;;9.70;8.70;;;1.20;99.90;;;;;;5070548;28;21144;-88
2021/01/27 07:28:18;;;;;;;9.00;8.07;;;1.30;99.90;;;;;;5067143;28;20640;-90
2021/01/27 07:30:58;;;;;;;8.80;8.03;;;1.30;99.90;;;;;;5063214;28;20674;-89
2021/01/27 07:33:35;;;;;;;8.80;8.10;;;1.30;99.90;;;;;;5068573;28;20698;-89
2021/01/27 07:36:16;;;;;;;7.40;6.70;;;1.40;99.90;;;;;;5063030;28;20656;-91
2021/01/27 07:38:51;;;;;;;8.53;6.40;;;1.60;99.90;;;;;;5064541;28;21063;-90
2021/01/27 07:41:23;;;;;;;7.20;6.60;;;1.60;99.90;;;;;;5064682;28;20660;-91
2021/01/27 07:43:54;;;;;;;6.50;6.00;;;1.60;99.90;;;;;;5066382;28;20664;-90
2021/01/27 07:46:37;;;;;;;7.67;7.03;;;1.60;99.90;;;;;;5065227;28;20625;-88
2021/01/27 07:49:05;;;;;;;8.13;7.37;;;1.60;99.90;;;;;;5066492;28;20621;-86
2021/01/27 07:51:41;;;;;;;8.57;7.77;;;1.60;99.90;;;;;;5061995;28;20702;-88
2021/01/27 07:54:12;;;;;;;9.27;8.37;;;1.80;99.90;;;;;;5058356;28;20589;-88
2021/01/27 07:56:42;;;;;;;8.83;7.93;;;1.80;99.90;;;;;;5061691;28;20714;-89
2021/01/27 07:59:14;;;;;;;17.40;13.20;;;1.70;99.90;;;;;;5067167;28;20663;-88
2021/01/27 08:01:46;;;;;;;21.57;15.47;;;1.70;99.90;;;;;;5067707;28;20660;-88
2021/01/27 08:04:24;;;;;;;13.63;11.10;;;1.80;99.90;;;;;;5052765;28;20632;-88
2021/01/27 08:06:53;;;;;;;12.10;10.90;;;1.80;99.90;;;;;;5067987;28;20617;-87
2021/01/27 08:09:29;;;;;;;13.40;11.40;;;1.90;99.90;;;;;;5065136;28;20621;-87
2021/01/27 08:12:11;;;;;;;10.87;9.77;;;1.90;99.90;;;;;;5060314;28;20671;-87
2021/01/27 08:15:03;;;;;;;11.00;9.30;;;1.90;99.90;;;;;;5067954;28;20629;-87
2021/01/27 08:17:47;;;;;;;11.20;10.00;;;1.80;99.90;;;;;;5060142;28;20629;-87
2021/01/27 08:20:23;;;;;;;9.30;7.73;;;2.00;99.90;;;;;;5063503;28;20706;-88
2021/01/27 08:22:52;;;;;;;8.43;7.60;;;1.90;99.90;;;;;;5060147;28;21087;-87
2021/01/27 08:25:51;;;;;;;8.47;7.70;;;1.90;99.90;;;;;;5060865;28;20618;-87
2021/01/27 08:28:23;;;;;;;7.80;7.10;;;1.90;99.90;;;;;;5060863;28;20975;-87
2021/01/27 08:31:16;;;;;;;7.97;7.13;;;1.90;99.90;;;;;;5064088;28;20664;-88
2021/01/27 08:33:57;;;;;;;11.03;10.00;;;1.90;99.90;;;;;;5064429;28;20664;-87
2021/01/27 08:37:01;;;;;;;8.37;7.47;;;1.90;99.90;;;;;;5065261;28;20719;-88
2021/01/27 08:39:28;;;;;;;8.30;7.50;;;2.00;99.90;;;;;;5058267;28;21206;-88
2021/01/27 08:41:58;;;;;;;7.80;7.10;;;2.00;99.90;;;;;;5064718;28;20680;-88
2021/01/27 08:44:29;;;;;;;7.00;6.30;;;1.80;99.90;;;;;;5065384;28;21010;-89
2021/01/27 08:47:19;;;;;;;9.60;7.73;;;1.90;99.90;;;;;;5064064;28;20633;-88
2021/01/27 08:49:53;;;;;;;9.60;7.07;;;1.80;99.90;;;;;;5064058;28;20624;-88
2021/01/27 08:52:42;;;;;;;7.33;6.37;;;1.80;99.90;;;;;;5057152;28;20609;-89
2021/01/27 08:55:34;;;;;;;7.83;7.13;;;1.90;99.90;;;;;;5058933;28;21568;-89
2021/01/27 08:58:23;;;;;;;7.87;7.17;;;1.90;99.90;;;;;;5066036;28;20760;-88
2021/01/27 09:00:51;;;;;;;6.50;5.90;;;1.90;99.90;;;;;;5032122;28;20746;-88
2021/01/27 09:03:51;;;;;;;6.23;5.73;;;1.90;99.90;;;;;;5063524;28;21190;-89
2021/01/27 09:06:26;;;;;;;9.43;7.53;;;1.70;99.90;;;;;;5063636;28;20731;-89
2021/01/27 09:08:56;;;;;;;6.10;5.60;;;1.70;99.90;;;;;;5059850;28;20644;-88
2021/01/27 09:11:23;;;;;;;6.23;5.63;;;1.60;99.90;;;;;;5045269;28;21238;-86
2021/01/27 09:13:53;;;;;;;6.40;5.90;;;1.70;99.90;;;;;;5064619;28;20623;-87
2021/01/27 09:16:22;;;;;;;8.00;7.03;;;1.70;99.90;;;;;;5064471;28;20700;-88
2021/01/27 09:18:55;;;;;;;8.40;6.50;;;1.60;99.90;;;;;;5068249;28;21044;-89
2021/01/27 09:21:24;;;;;;;6.97;6.37;;;1.70;99.90;;;;;;5060808;28;20652;-88
2021/01/27 09:23:59;;;;;;;7.80;6.97;;;1.80;99.90;;;;;;5061441;28;20625;-89
2021/01/27 09:26:41;;;;;;;7.57;6.97;;;1.90;99.90;;;;;;5066728;28;20645;-88
2021/01/27 09:29:10;;;;;;;8.47;7.67;;;1.90;99.90;;;;;;5063603;28;20652;-88
2021/01/27 09:31:36;;;;;;;12.43;6.97;;;1.90;99.90;;;;;;5063332;28;20640;-89
2021/01/27 09:34:18;;;;;;;8.53;7.73;;;2.00;99.90;;;;;;5067062;28;20637;-89
2021/01/27 09:36:47;;;;;;;8.03;7.30;;;1.90;99.90;;;;;;5068462;28;20626;-88
2021/01/27 09:39:13;;;;;;;9.23;8.43;;;1.60;99.90;;;;;;5061928;28;20695;-90
2021/01/27 09:41:43;;;;;;;11.07;9.10;;;1.50;99.90;;;;;;5066067;28;20664;-88
2021/01/27 09:44:26;;;;;;;9.70;8.70;;;1.50;99.90;;;;;;5063757;28;20623;-89
2021/01/27 09:46:53;;;;;;;10.20;9.23;;;1.60;99.90;;;;;;5065884;28;20625;-89
2021/01/27 09:49:20;;;;;;;8.63;7.73;;;1.60;99.90;;;;;;5065662;28;20622;-89
2021/01/27 09:51:53;;;;;;;9.80;8.00;;;1.60;99.90;;;;;;5065929;28;20656;-89
2021/01/27 09:54:22;;;;;;;9.27;7.57;;;1.70;99.90;;;;;;5065093;28;20621;-89
2021/01/27 09:56:59;;;;;;;8.00;7.17;;;1.80;99.90;;;;;;5047360;28;20632;-88
2021/01/27 09:59:26;;;;;;;8.37;7.57;;;1.80;99.90;;;;;;5068927;28;20755;-89
2021/01/27 10:01:53;;;;;;;5.73;5.23;;;1.90;99.90;;;;;;5051700;28;20660;-89
2021/01/27 10:04:32;;;;;;;5.23;4.73;;;2.00;99.90;;;;;;5062587;28;21345;-89
2021/01/27 10:07:08;;;;;;;5.90;5.40;;;2.00;99.90;;;;;;5071950;28;20639;-89
2021/01/27 10:09:42;;;;;;;7.03;4.57;;;1.90;99.90;;;;;;5076623;28;20618;-89
2021/01/27 10:12:17;;;;;;;5.73;4.40;;;2.00;99.90;;;;;;5073748;28;20581;-89
2021/01/27 10:14:47;;;;;;;5.27;4.77;;;2.10;99.90;;;;;;5077085;28;20678;-89
2021/01/27 10:17:15;;;;;;;5.70;5.20;;;2.00;99.90;;;;;;5077033;28;20629;-88
2021/01/27 10:19:47;;;;;;;6.47;5.80;;;2.00;99.90;;;;;;5076375;28;20671;-88
2021/01/27 10:22:24;;;;;;;6.23;5.73;;;2.00;99.90;;;;;;5073988;28;20616;-88
2021/01/27 10:24:53;;;;;;;5.03;4.63;;;2.10;99.90;;;;;;5071963;28;20821;-88
2021/01/27 10:27:24;;;;;;;5.90;5.13;;;2.00;99.90;;;;;;5072824;28;21019;-88
2021/01/27 10:29:51;;;;;;;6.30;5.70;;;2.00;99.90;;;;;;5076737;28;20631;-87
2021/01/27 10:32:26;;;;;;;8.03;6.40;;;2.00;99.90;;;;;;5083012;28;20630;-87
2021/01/27 10:34:53;;;;;;;6.23;5.63;;;1.90;99.90;;;;;;5076210;28;20683;-87
2021/01/27 10:37:43;;;;;;;6.90;6.20;;;1.80;99.90;;;;;;5083214;28;20629;-88
2021/01/27 10:40:24;;;;;;;6.73;6.13;;;1.80;99.90;;;;;;5081685;28;20664;-88
2021/01/27 10:42:53;;;;;;;9.60;7.50;;;1.90;99.90;;;;;;5090313;28;20633;-89
2021/01/27 10:45:32;;;;;;;7.27;6.53;;;2.00;99.90;;;;;;5089325;28;20640;-88
2021/01/27 10:48:13;;;;;;;8.00;7.03;;;2.10;99.90;;;;;;5088229;28;20636;-88
2021/01/27 10:50:44;;;;;;;10.00;8.03;;;2.30;99.90;;;;;;5085369;28;20682;-88
2021/01/27 10:53:13;;;;;;;9.30;6.40;;;2.50;99.90;;;;;;5085394;28;20597;-89
2021/01/27 10:55:43;;;;;;;6.60;6.00;;;2.40;99.90;;;;;;5086255;28;20934;-88
2021/01/27 10:58:11;;;;;;;6.93;6.23;;;2.20;99.90;;;;;;5085848;28;20632;-88
2021/01/27 11:00:38;;;;;;;7.47;6.87;;;2.30;99.90;;;;;;5077290;28;20652;-88
2021/01/27 11:03:05;;;;;;;6.23;5.73;;;2.20;99.90;;;;;;5078533;28;20600;-87
2021/01/27 11:05:32;;;;;;;6.40;5.80;;;2.10;99.90;;;;;;5075502;28;20621;-88
2021/01/27 11:07:59;;;;;;;6.83;6.17;;;2.00;99.90;;;;;;5053472;28;20596;-87
2021/01/27 11:10:27;;;;;;;7.33;6.67;;;2.00;99.90;;;;;;5070454;28;20644;-88
2021/01/27 11:12:55;;;;;;;10.17;7.80;;;2.10;99.90;;;;;;5074457;28;20633;-89
2021/01/27 11:15:22;;;;;;;8.00;7.30;;;2.10;99.90;;;;;;5086421;28;20632;-90
2021/01/27 11:17:49;;;;;;;8.73;7.80;;;2.20;99.90;;;;;;5089395;28;20629;-90
2021/01/27 11:20:19;;;;;;;8.93;7.90;;;2.10;99.90;;;;;;5085404;28;20641;-89
2021/01/27 11:22:47;;;;;;;10.83;8.57;;;2.10;99.90;;;;;;5087348;28;20637;-88
2021/01/27 11:25:16;;;;;;;8.90;7.97;;;2.20;99.90;;;;;;5086471;28;20736;-89
2021/01/27 11:27:45;;;;;;;13.37;8.87;;;2.10;99.90;;;;;;5080177;28;20659;-88
2021/01/27 11:30:12;;;;;;;9.03;8.17;;;2.00;99.90;;;;;;5082379;28;20707;-89
2021/01/27 11:32:45;;;;;;;10.70;9.70;;;2.00;99.90;;;;;;5077684;28;20613;-87
2021/01/27 11:35:13;;;;;;;11.60;10.50;;;2.00;99.90;;;;;;5077658;28;21081;-87
2021/01/27 11:37:39;;;;;;;10.90;9.80;;;1.90;99.90;;;;;;5084372;28;20631;-84
2021/01/27 11:40:07;;;;;;;10.57;9.43;;;2.10;99.90;;;;;;5088453;28;20653;-87
2021/01/27 11:42:33;;;;;;;13.13;11.83;;;2.20;99.90;;;;;;5082900;28;20674;-87
2021/01/27 11:45:01;;;;;;;9.10;8.30;;;2.10;99.90;;;;;;5085690;28;20614;-87
2021/01/27 11:47:27;;;;;;;12.40;9.77;;;2.30;99.90;;;;;;5085047;28;20632;-88
2021/01/27 11:49:54;;;;;;;9.53;7.97;;;2.30;99.90;;;;;;5076101;28;21258;-87
2021/01/27 11:52:20;;;;;;;10.30;9.27;;;2.40;99.90;;;;;;5075184;28;20625;-88
2021/01/27 11:54:47;;;;;;;11.17;7.60;;;2.30;99.90;;;;;;5072226;28;21284;-88
2021/01/27 11:57:14;;;;;;;6.97;6.37;;;2.40;99.90;;;;;;5051757;28;20982;-88
2021/01/27 11:59:40;;;;;;;30.77;18.37;;;2.40;99.90;;;;;;5076423;28;21022;-87
2021/01/27 12:02:08;;;;;;;9.00;6.80;;;2.50;99.90;;;;;;5066951;28;20638;-89
2021/01/27 12:04:34;;;;;;;14.70;10.13;;;2.50;99.90;;;;;;5070196;28;20641;-88
2021/01/27 12:07:01;;;;;;;8.93;8.10;;;2.30;99.90;;;;;;5067906;28;20633;-88
2021/01/27 12:09:29;;;;;;;7.50;6.80;;;2.60;99.90;;;;;;5073315;28;20632;-89
2021/01/27 12:11:56;;;;;;;6.50;5.90;;;2.70;99.90;;;;;;5069099;28;20686;-88
2021/01/27 12:14:25;;;;;;;6.60;6.00;;;2.80;99.90;;;;;;5074215;28;20622;-88
2021/01/27 12:16:51;;;;;;;7.60;6.90;;;2.80;99.90;;;;;;5066563;28;20633;-88
2021/01/27 12:19:18;;;;;;;7.33;6.63;;;2.70;99.90;;;;;;5068443;28;20653;-88
2021/01/27 12:21:44;;;;;;;8.20;6.30;;;2.50;99.90;;;;;;5065919;28;20665;-87
2021/01/27 12:24:11;;;;;;;6.20;5.53;;;2.40;99.90;;;;;;5061581;28;20621;-88
2021/01/27 12:26:37;;;;;;;9.77;8.50;;;2.50;99.90;;;;;;5061625;28;20867;-89
2021/01/27 12:29:04;;;;;;;6.93;5.47;;;2.50;99.90;;;;;;5062666;28;21178;-87
2021/01/27 12:31:30;;;;;;;10.93;8.00;;;2.70;99.90;;;;;;5065517;28;20645;-89
2021/01/27 12:33:56;;;;;;;14.43;9.33;;;2.70;99.90;;;;;;5063795;28;20639;-89
2021/01/27 12:36:24;;;;;;;25.50;15.07;;;2.70;99.90;;;;;;5069708;28;20624;-88
2021/01/27 12:38:50;;;;;;;7.40;5.17;;;2.70;99.90;;;;;;5067083;28;20661;-89
2021/01/27 12:41:18;;;;;;;39.33;20.93;;;2.60;99.90;;;;;;5073314;28;20664;-89
2021/01/27 12:43:45;;;;;;;40.67;31.07;;;2.80;99.90;;;;;;5071119;28;20624;-89
2021/01/27 12:46:11;;;;;;;14.37;11.67;;;2.70;99.90;;;;;;5064795;28;20651;-88
2021/01/27 12:48:39;;;;;;;4.60;4.20;;;2.70;99.90;;;;;;5068045;28;20633;-87
2021/01/27 12:51:06;;;;;;;5.90;4.60;;;2.80;99.90;;;;;;5063056;28;20649;-88
2021/01/27 12:53:34;;;;;;;4.20;3.90;;;2.90;99.90;;;;;;5070683;28;20590;-87
2021/01/27 12:56:00;;;;;;;4.70;4.30;;;3.00;99.90;;;;;;5073035;28;20629;-88
2021/01/27 12:58:26;;;;;;;6.27;4.77;;;3.10;99.90;;;;;;5071132;28;20657;-88
2021/01/27 13:00:53;;;;;;;6.17;5.23;;;3.40;99.90;;;;;;5072452;28;20750;-88
2021/01/27 13:03:19;;;;;;;5.77;5.27;;;3.50;99.90;;;;;;5066688;28;20679;-88
2021/01/27 13:05:45;;;;;;;6.43;5.80;;;3.80;99.90;;;;;;5073560;28;20738;-88
2021/01/27 13:08:12;;;;;;;5.47;4.93;;;3.90;99.90;;;;;;5076539;28;20624;-88
2021/01/27 13:10:41;;;;;;;3.00;2.80;;;3.90;99.90;;;;;;5089467;28;20671;-87
2021/01/27 13:13:08;;;;;;;4.27;3.90;;;3.90;99.90;;;;;;5088433;28;20708;-88
2021/01/27 13:15:35;;;;;;;4.10;3.80;;;3.90;99.90;;;;;;5079029;28;20632;-87
2021/01/27 13:18:02;;;;;;;4.47;4.07;;;3.60;99.90;;;;;;5076005;28;20614;-86
2021/01/27 13:20:29;;;;;;;5.50;5.00;;;3.50;99.90;;;;;;5075132;28;20633;-87
2021/01/27 13:22:55;;;;;;;4.70;4.30;;;3.50;99.90;;;;;;5076660;28;20629;-87